sensor_id;sensor_type;location;lat;lon;timestamp;P1;durP1;ratioP1;P2;durP2;ratioP2
529;SDS011;251;48.704;9.210;2022-07-17T00:02:01;1.77;;;1.37;;
529;SDS011;251;48.704;9.210;2022-07-17T00:04:29;2.47;;;1.87;;
529;SDS011;251;48.704;9.210;2022-07-17T00:06:56;4.90;;;2.63;;
529;SDS011;251;48.704;9.210;2022-07-17T00:09:22;6.50;;;2.40;;
529;SDS011;251;48.704;9.210;2022-07-17T00:11:49;1.77;;;1.23;;
529;SDS011;251;48.704;9.210;2022-07-17T00:14:16;2.27;;;1.90;;
529;SDS011;251;48.704;9.210;2022-07-17T00:16:42;3.60;;;1.70;;
529;SDS011;251;48.704;9.210;2022-07-17T00:19:09;2.60;;;1.60;;
529;SDS011;251;48.704;9.210;2022-07-17T00:21:37;4.87;;;2.33;;
529;SDS011;251;48.704;9.210;2022-07-17T00:24:04;2.40;;;1.37;;
529;SDS011;251;48.704;9.210;2022-07-17T00:26:31;2.47;;;1.40;;
529;SDS011;251;48.704;9.210;2022-07-17T00:28:59;4.07;;;1.90;;
529;SDS011;251;48.704;9.210;2022-07-17T00:31:25;2.37;;;1.50;;
529;SDS011;251;48.704;9.210;2022-07-17T00:33:52;2.17;;;1.70;;
529;SDS011;251;48.704;9.210;2022-07-17T00:36:19;1.93;;;1.70;;
529;SDS011;251;48.704;9.210;2022-07-17T00:38:47;3.77;;;1.67;;
529;SDS011;251;48.704;9.210;2022-07-17T00:41:14;1.90;;;1.47;;
529;SDS011;251;48.704;9.210;2022-07-17T00:43:41;3.03;;;1.70;;
529;SDS011;251;48.704;9.210;2022-07-17T00:46:08;2.80;;;2.50;;
529;SDS011;251;48.704;9.210;2022-07-17T00:48:34;3.40;;;2.00;;
529;SDS011;251;48.704;9.210;2022-07-17T00:51:01;2.13;;;1.70;;
529;SDS011;251;48.704;9.210;2022-07-17T00:53:28;1.87;;;1.67;;
529;SDS011;251;48.704;9.210;2022-07-17T00:56:00;2.40;;;1.50;;
529;SDS011;251;48.704;9.210;2022-07-17T00:58:28;2.50;;;1.80;;
529;SDS011;251;48.704;9.210;2022-07-17T01:00:56;3.10;;;1.90;;
529;SDS011;251;48.704;9.210;2022-07-17T01:03:23;1.70;;;1.60;;
529;SDS011;251;48.704;9.210;2022-07-17T01:05:50;2.30;;;1.60;;
529;SDS011;251;48.704;9.210;2022-07-17T01:08:18;2.40;;;1.80;;
529;SDS011;251;48.704;9.210;2022-07-17T01:10:45;2.40;;;2.20;;
529;SDS011;251;48.704;9.210;2022-07-17T01:13:13;2.30;;;1.90;;
529;SDS011;251;48.704;9.210;2022-07-17T01:15:40;1.93;;;1.73;;
529;SDS011;251;48.704;9.210;2022-07-17T01:18:08;4.03;;;1.90;;
529;SDS011;251;48.704;9.210;2022-07-17T01:20:36;2.17;;;1.77;;
529;SDS011;251;48.704;9.210;2022-07-17T01:23:06;1.60;;;1.30;;
529;SDS011;251;48.704;9.210;2022-07-17T01:25:33;2.40;;;1.87;;
529;SDS011;251;48.704;9.210;2022-07-17T01:28:00;2.33;;;1.90;;
529;SDS011;251;48.704;9.210;2022-07-17T01:30:28;5.07;;;2.00;;
529;SDS011;251;48.704;9.210;2022-07-17T01:32:55;4.43;;;2.90;;
529;SDS011;251;48.704;9.210;2022-07-17T01:35:22;2.70;;;2.07;;
529;SDS011;251;48.704;9.210;2022-07-17T01:37:49;2.60;;;1.80;;
529;SDS011;251;48.704;9.210;2022-07-17T01:40:17;4.00;;;2.00;;
529;SDS011;251;48.704;9.210;2022-07-17T01:42:45;3.93;;;2.07;;
529;SDS011;251;48.704;9.210;2022-07-17T01:45:14;3.20;;;2.13;;
529;SDS011;251;48.704;9.210;2022-07-17T01:47:42;3.50;;;2.43;;
529;SDS011;251;48.704;9.210;2022-07-17T01:50:09;1.83;;;1.60;;
529;SDS011;251;48.704;9.210;2022-07-17T01:52:38;2.60;;;1.80;;
529;SDS011;251;48.704;9.210;2022-07-17T01:55:07;3.13;;;2.57;;
529;SDS011;251;48.704;9.210;2022-07-17T01:57:36;3.60;;;3.30;;
529;SDS011;251;48.704;9.210;2022-07-17T02:00:04;2.70;;;1.53;;
529;SDS011;251;48.704;9.210;2022-07-17T02:02:33;2.73;;;1.53;;
529;SDS011;251;48.704;9.210;2022-07-17T02:05:00;2.70;;;2.20;;
529;SDS011;251;48.704;9.210;2022-07-17T02:07:27;2.10;;;1.60;;
529;SDS011;251;48.704;9.210;2022-07-17T02:09:53;2.50;;;1.50;;
529;SDS011;251;48.704;9.210;2022-07-17T02:12:20;2.47;;;2.17;;
529;SDS011;251;48.704;9.210;2022-07-17T02:14:48;2.70;;;2.13;;
529;SDS011;251;48.704;9.210;2022-07-17T02:17:15;2.93;;;2.30;;
529;SDS011;251;48.704;9.210;2022-07-17T02:19:42;3.07;;;1.90;;
529;SDS011;251;48.704;9.210;2022-07-17T02:22:08;3.43;;;1.93;;
529;SDS011;251;48.704;9.210;2022-07-17T02:24:35;3.40;;;1.70;;
529;SDS011;251;48.704;9.210;2022-07-17T02:27:02;1.70;;;1.37;;
529;SDS011;251;48.704;9.210;2022-07-17T02:29:29;2.40;;;1.63;;
529;SDS011;251;48.704;9.210;2022-07-17T02:31:57;2.63;;;2.40;;
529;SDS011;251;48.704;9.210;2022-07-17T02:34:23;3.03;;;2.10;;
529;SDS011;251;48.704;9.210;2022-07-17T02:36:50;2.45;;;2.25;;
529;SDS011;251;48.704;9.210;2022-07-17T02:39:17;2.00;;;1.67;;
529;SDS011;251;48.704;9.210;2022-07-17T02:41:44;2.00;;;1.80;;
529;SDS011;251;48.704;9.210;2022-07-17T02:44:10;3.10;;;1.70;;
529;SDS011;251;48.704;9.210;2022-07-17T02:46:37;2.23;;;1.70;;
529;SDS011;251;48.704;9.210;2022-07-17T02:49:05;2.55;;;2.22;;
529;SDS011;251;48.704;9.210;2022-07-17T02:51:32;1.83;;;1.60;;
529;SDS011;251;48.704;9.210;2022-07-17T02:53:59;2.37;;;1.77;;
529;SDS011;251;48.704;9.210;2022-07-17T02:56:25;3.13;;;2.40;;
529;SDS011;251;48.704;9.210;2022-07-17T02:58:52;2.07;;;1.30;;
529;SDS011;251;48.704;9.210;2022-07-17T03:01:19;1.80;;;1.47;;
529;SDS011;251;48.704;9.210;2022-07-17T03:03:45;2.13;;;1.93;;
529;SDS011;251;48.704;9.210;2022-07-17T03:06:13;3.23;;;2.50;;
529;SDS011;251;48.704;9.210;2022-07-17T03:08:40;2.20;;;1.67;;
529;SDS011;251;48.704;9.210;2022-07-17T03:11:07;2.60;;;2.00;;
529;SDS011;251;48.704;9.210;2022-07-17T03:13:34;2.47;;;2.00;;
529;SDS011;251;48.704;9.210;2022-07-17T03:16:00;2.43;;;1.67;;
529;SDS011;251;48.704;9.210;2022-07-17T03:18:27;2.25;;;1.40;;
529;SDS011;251;48.704;9.210;2022-07-17T03:20:54;1.83;;;1.63;;
529;SDS011;251;48.704;9.210;2022-07-17T03:23:22;3.10;;;2.80;;
529;SDS011;251;48.704;9.210;2022-07-17T03:25:48;1.70;;;1.27;;
529;SDS011;251;48.704;9.210;2022-07-17T03:28:15;2.08;;;1.77;;
529;SDS011;251;48.704;9.210;2022-07-17T03:30:42;2.97;;;1.70;;
529;SDS011;251;48.704;9.210;2022-07-17T03:33:09;2.27;;;2.03;;
529;SDS011;251;48.704;9.210;2022-07-17T03:35:36;2.20;;;1.50;;
529;SDS011;251;48.704;9.210;2022-07-17T03:38:02;5.70;;;2.50;;
529;SDS011;251;48.704;9.210;2022-07-17T03:40:30;2.70;;;1.75;;
529;SDS011;251;48.704;9.210;2022-07-17T03:42:57;3.15;;;2.10;;
529;SDS011;251;48.704;9.210;2022-07-17T03:45:24;2.38;;;1.85;;
529;SDS011;251;48.704;9.210;2022-07-17T03:47:50;2.03;;;1.73;;
529;SDS011;251;48.704;9.210;2022-07-17T03:50:17;3.55;;;2.13;;
529;SDS011;251;48.704;9.210;2022-07-17T03:52:44;3.63;;;2.22;;
529;SDS011;251;48.704;9.210;2022-07-17T03:55:11;2.10;;;1.90;;
529;SDS011;251;48.704;9.210;2022-07-17T03:57:39;3.50;;;2.30;;
529;SDS011;251;48.704;9.210;2022-07-17T04:00:06;2.65;;;1.77;;
529;SDS011;251;48.704;9.210;2022-07-17T04:02:37;3.15;;;1.90;;
529;SDS011;251;48.704;9.210;2022-07-17T04:05:03;1.60;;;1.20;;
529;SDS011;251;48.704;9.210;2022-07-17T04:07:34;2.30;;;1.93;;
529;SDS011;251;48.704;9.210;2022-07-17T04:10:01;3.08;;;2.42;;
529;SDS011;251;48.704;9.210;2022-07-17T04:12:28;2.23;;;1.73;;
529;SDS011;251;48.704;9.210;2022-07-17T04:14:56;1.93;;;1.70;;
529;SDS011;251;48.704;9.210;2022-07-17T04:17:23;2.85;;;2.00;;
529;SDS011;251;48.704;9.210;2022-07-17T04:19:50;2.88;;;1.63;;
529;SDS011;251;48.704;9.210;2022-07-17T04:22:17;2.40;;;2.20;;
529;SDS011;251;48.704;9.210;2022-07-17T04:24:44;5.70;;;1.75;;
529;SDS011;251;48.704;9.210;2022-07-17T04:27:11;2.33;;;2.08;;
529;SDS011;251;48.704;9.210;2022-07-17T04:29:38;3.05;;;1.92;;
529;SDS011;251;48.704;9.210;2022-07-17T04:32:07;2.20;;;1.50;;
529;SDS011;251;48.704;9.210;2022-07-17T04:34:33;1.92;;;1.73;;
529;SDS011;251;48.704;9.210;2022-07-17T04:37:01;2.83;;;1.95;;
529;SDS011;251;48.704;9.210;2022-07-17T04:39:29;2.90;;;2.00;;
529;SDS011;251;48.704;9.210;2022-07-17T04:41:56;2.05;;;1.85;;
529;SDS011;251;48.704;9.210;2022-07-17T04:44:23;2.20;;;1.92;;
529;SDS011;251;48.704;9.210;2022-07-17T04:46:50;2.97;;;2.00;;
529;SDS011;251;48.704;9.210;2022-07-17T04:49:18;2.17;;;1.52;;
529;SDS011;251;48.704;9.210;2022-07-17T04:51:45;2.03;;;1.73;;
529;SDS011;251;48.704;9.210;2022-07-17T04:54:11;4.47;;;4.00;;
529;SDS011;251;48.704;9.210;2022-07-17T04:56:38;2.95;;;1.73;;
529;SDS011;251;48.704;9.210;2022-07-17T04:59:05;2.30;;;1.87;;
529;SDS011;251;48.704;9.210;2022-07-17T05:01:31;2.33;;;1.95;;
529;SDS011;251;48.704;9.210;2022-07-17T05:03:59;2.13;;;1.77;;
529;SDS011;251;48.704;9.210;2022-07-17T05:06:28;3.70;;;2.47;;
529;SDS011;251;48.704;9.210;2022-07-17T05:08:54;3.73;;;2.27;;
529;SDS011;251;48.704;9.210;2022-07-17T05:11:21;2.30;;;1.87;;
529;SDS011;251;48.704;9.210;2022-07-17T05:13:48;2.70;;;2.13;;
529;SDS011;251;48.704;9.210;2022-07-17T05:16:15;2.17;;;1.92;;
529;SDS011;251;48.704;9.210;2022-07-17T05:18:41;1.80;;;1.55;;
529;SDS011;251;48.704;9.210;2022-07-17T05:21:08;2.63;;;1.88;;
529;SDS011;251;48.704;9.210;2022-07-17T05:23:36;3.00;;;2.20;;
529;SDS011;251;48.704;9.210;2022-07-17T05:26:04;2.93;;;2.37;;
529;SDS011;251;48.704;9.210;2022-07-17T05:28:31;2.67;;;2.00;;
529;SDS011;251;48.704;9.210;2022-07-17T05:30:58;1.80;;;1.40;;
529;SDS011;251;48.704;9.210;2022-07-17T05:33:24;2.43;;;1.67;;
529;SDS011;251;48.704;9.210;2022-07-17T05:35:51;4.97;;;3.67;;
529;SDS011;251;48.704;9.210;2022-07-17T05:38:18;2.47;;;1.87;;
529;SDS011;251;48.704;9.210;2022-07-17T05:40:46;3.30;;;2.27;;
529;SDS011;251;48.704;9.210;2022-07-17T05:43:12;2.03;;;1.70;;
529;SDS011;251;48.704;9.210;2022-07-17T05:45:39;2.50;;;2.30;;
529;SDS011;251;48.704;9.210;2022-07-17T05:48:06;4.10;;;2.37;;
529;SDS011;251;48.704;9.210;2022-07-17T05:50:33;1.60;;;1.50;;
529;SDS011;251;48.704;9.210;2022-07-17T05:53:00;1.67;;;1.43;;
529;SDS011;251;48.704;9.210;2022-07-17T05:55:27;2.43;;;1.90;;
529;SDS011;251;48.704;9.210;2022-07-17T05:57:55;3.37;;;2.60;;
529;SDS011;251;48.704;9.210;2022-07-17T06:00:22;3.10;;;2.57;;
529;SDS011;251;48.704;9.210;2022-07-17T06:02:49;2.87;;;2.20;;
529;SDS011;251;48.704;9.210;2022-07-17T06:05:15;2.13;;;1.90;;
529;SDS011;251;48.704;9.210;2022-07-17T06:07:42;3.03;;;2.73;;
529;SDS011;251;48.704;9.210;2022-07-17T06:10:09;2.63;;;2.27;;
529;SDS011;251;48.704;9.210;2022-07-17T06:12:36;2.70;;;1.90;;
529;SDS011;251;48.704;9.210;2022-07-17T06:15:04;2.57;;;2.37;;
529;SDS011;251;48.704;9.210;2022-07-17T06:17:32;2.53;;;2.10;;
529;SDS011;251;48.704;9.210;2022-07-17T06:19:58;5.97;;;2.30;;
529;SDS011;251;48.704;9.210;2022-07-17T06:22:25;3.30;;;2.40;;
529;SDS011;251;48.704;9.210;2022-07-17T06:24:52;3.40;;;2.17;;
529;SDS011;251;48.704;9.210;2022-07-17T06:27:19;3.30;;;2.27;;
529;SDS011;251;48.704;9.210;2022-07-17T06:29:45;2.53;;;1.87;;
529;SDS011;251;48.704;9.210;2022-07-17T06:32:14;1.90;;;1.50;;
529;SDS011;251;48.704;9.210;2022-07-17T06:34:41;2.13;;;1.60;;
529;SDS011;251;48.704;9.210;2022-07-17T06:37:08;2.90;;;2.20;;
529;SDS011;251;48.704;9.210;2022-07-17T06:39:34;1.50;;;1.37;;
529;SDS011;251;48.704;9.210;2022-07-17T06:42:01;2.27;;;1.80;;
529;SDS011;251;48.704;9.210;2022-07-17T06:44:28;6.20;;;1.60;;
529;SDS011;251;48.704;9.210;2022-07-17T06:46:55;1.70;;;1.00;;
529;SDS011;251;48.704;9.210;2022-07-17T06:49:23;2.30;;;1.70;;
529;SDS011;251;48.704;9.210;2022-07-17T06:51:50;1.63;;;1.30;;
529;SDS011;251;48.704;9.210;2022-07-17T06:54:17;2.00;;;1.33;;
529;SDS011;251;48.704;9.210;2022-07-17T06:56:43;3.07;;;1.60;;
529;SDS011;251;48.704;9.210;2022-07-17T06:59:10;1.63;;;1.30;;
529;SDS011;251;48.704;9.210;2022-07-17T07:01:37;1.63;;;1.50;;
529;SDS011;251;48.704;9.210;2022-07-17T07:04:04;1.97;;;1.43;;
529;SDS011;251;48.704;9.210;2022-07-17T07:06:32;1.60;;;1.27;;
529;SDS011;251;48.704;9.210;2022-07-17T07:08:58;2.67;;;1.00;;
529;SDS011;251;48.704;9.210;2022-07-17T07:11:25;1.73;;;1.00;;
529;SDS011;251;48.704;9.210;2022-07-17T07:13:52;1.40;;;0.90;;
529;SDS011;251;48.704;9.210;2022-07-17T07:16:19;2.10;;;1.20;;
529;SDS011;251;48.704;9.210;2022-07-17T07:18:46;2.20;;;1.70;;
529;SDS011;251;48.704;9.210;2022-07-17T07:21:13;1.63;;;1.50;;
529;SDS011;251;48.704;9.210;2022-07-17T07:23:41;1.90;;;1.30;;
529;SDS011;251;48.704;9.210;2022-07-17T07:26:08;2.23;;;1.63;;
529;SDS011;251;48.704;9.210;2022-07-17T07:28:35;2.03;;;1.50;;
529;SDS011;251;48.704;9.210;2022-07-17T07:31:02;2.20;;;1.50;;
529;SDS011;251;48.704;9.210;2022-07-17T07:33:29;2.00;;;1.07;;
529;SDS011;251;48.704;9.210;2022-07-17T07:35:56;3.00;;;1.83;;
529;SDS011;251;48.704;9.210;2022-07-17T07:38:22;1.50;;;1.20;;
529;SDS011;251;48.704;9.210;2022-07-17T07:40:50;2.10;;;1.40;;
529;SDS011;251;48.704;9.210;2022-07-17T07:43:17;1.70;;;1.30;;
529;SDS011;251;48.704;9.210;2022-07-17T07:45:44;2.43;;;1.10;;
529;SDS011;251;48.704;9.210;2022-07-17T07:48:11;2.03;;;1.50;;
529;SDS011;251;48.704;9.210;2022-07-17T07:50:37;1.43;;;1.23;;
529;SDS011;251;48.704;9.210;2022-07-17T07:53:04;1.50;;;0.93;;
529;SDS011;251;48.704;9.210;2022-07-17T07:55:31;1.77;;;1.40;;
529;SDS011;251;48.704;9.210;2022-07-17T07:58:02;3.00;;;1.13;;
529;SDS011;251;48.704;9.210;2022-07-17T08:00:30;1.43;;;0.97;;
529;SDS011;251;48.704;9.210;2022-07-17T08:02:57;1.50;;;1.07;;
529;SDS011;251;48.704;9.210;2022-07-17T08:05:24;1.37;;;1.10;;
529;SDS011;251;48.704;9.210;2022-07-17T08:07:50;1.87;;;1.23;;
529;SDS011;251;48.704;9.210;2022-07-17T08:10:18;1.30;;;0.80;;
529;SDS011;251;48.704;9.210;2022-07-17T08:12:44;1.40;;;1.00;;
529;SDS011;251;48.704;9.210;2022-07-17T08:15:13;1.87;;;1.47;;
529;SDS011;251;48.704;9.210;2022-07-17T08:17:40;1.43;;;1.10;;
529;SDS011;251;48.704;9.210;2022-07-17T08:20:08;1.90;;;1.50;;
529;SDS011;251;48.704;9.210;2022-07-17T08:22:36;1.70;;;1.20;;
529;SDS011;251;48.704;9.210;2022-07-17T08:25:02;1.73;;;1.43;;
529;SDS011;251;48.704;9.210;2022-07-17T08:27:34;1.90;;;1.40;;
529;SDS011;251;48.704;9.210;2022-07-17T08:30:01;2.50;;;1.87;;
529;SDS011;251;48.704;9.210;2022-07-17T08:32:30;1.90;;;1.53;;
529;SDS011;251;48.704;9.210;2022-07-17T08:34:56;2.20;;;1.60;;
529;SDS011;251;48.704;9.210;2022-07-17T08:37:23;2.43;;;1.50;;
529;SDS011;251;48.704;9.210;2022-07-17T08:39:50;2.37;;;1.60;;
529;SDS011;251;48.704;9.210;2022-07-17T08:42:17;2.53;;;1.40;;
529;SDS011;251;48.704;9.210;2022-07-17T08:44:44;2.03;;;1.53;;
529;SDS011;251;48.704;9.210;2022-07-17T08:47:11;2.70;;;1.60;;
529;SDS011;251;48.704;9.210;2022-07-17T08:49:42;4.83;;;2.73;;
529;SDS011;251;48.704;9.210;2022-07-17T08:52:10;1.97;;;1.57;;
529;SDS011;251;48.704;9.210;2022-07-17T08:54:38;1.47;;;1.27;;
529;SDS011;251;48.704;9.210;2022-07-17T08:57:05;2.77;;;1.60;;
529;SDS011;251;48.704;9.210;2022-07-17T08:59:32;5.37;;;1.97;;
529;SDS011;251;48.704;9.210;2022-07-17T09:01:58;2.43;;;2.23;;
529;SDS011;251;48.704;9.210;2022-07-17T09:04:25;2.30;;;2.10;;
529;SDS011;251;48.704;9.210;2022-07-17T09:06:59;2.20;;;1.43;;
529;SDS011;251;48.704;9.210;2022-07-17T09:09:27;1.70;;;1.10;;
529;SDS011;251;48.704;9.210;2022-07-17T09:11:55;2.83;;;1.87;;
529;SDS011;251;48.704;9.210;2022-07-17T09:14:35;2.00;;;1.13;;
529;SDS011;251;48.704;9.210;2022-07-17T09:17:04;2.67;;;1.20;;
529;SDS011;251;48.704;9.210;2022-07-17T09:19:33;1.53;;;1.13;;
529;SDS011;251;48.704;9.210;2022-07-17T09:22:06;2.20;;;1.20;;
529;SDS011;251;48.704;9.210;2022-07-17T09:24:42;2.40;;;1.27;;
529;SDS011;251;48.704;9.210;2022-07-17T09:27:11;2.30;;;1.37;;
529;SDS011;251;48.704;9.210;2022-07-17T09:29:49;1.30;;;1.00;;
529;SDS011;251;48.704;9.210;2022-07-17T09:32:21;3.80;;;1.63;;
529;SDS011;251;48.704;9.210;2022-07-17T09:34:49;3.40;;;1.57;;
529;SDS011;251;48.704;9.210;2022-07-17T09:37:18;1.40;;;0.90;;
529;SDS011;251;48.704;9.210;2022-07-17T09:39:47;2.43;;;1.57;;
529;SDS011;251;48.704;9.210;2022-07-17T09:42:25;2.23;;;1.43;;
529;SDS011;251;48.704;9.210;2022-07-17T09:44:54;1.80;;;1.10;;
529;SDS011;251;48.704;9.210;2022-07-17T09:47:22;2.03;;;1.37;;
529;SDS011;251;48.704;9.210;2022-07-17T09:49:50;1.70;;;1.23;;
529;SDS011;251;48.704;9.210;2022-07-17T09:52:20;1.50;;;1.20;;
529;SDS011;251;48.704;9.210;2022-07-17T09:54:48;1.83;;;1.00;;
529;SDS011;251;48.704;9.210;2022-07-17T09:57:19;1.83;;;1.07;;
529;SDS011;251;48.704;9.210;2022-07-17T09:59:46;2.03;;;1.40;;
529;SDS011;251;48.704;9.210;2022-07-17T10:02:14;1.70;;;1.20;;
529;SDS011;251;48.704;9.210;2022-07-17T10:04:41;1.80;;;1.33;;
529;SDS011;251;48.704;9.210;2022-07-17T10:07:08;1.20;;;1.00;;
529;SDS011;251;48.704;9.210;2022-07-17T10:09:36;2.70;;;1.13;;
529;SDS011;251;48.704;9.210;2022-07-17T10:12:05;1.67;;;0.90;;
529;SDS011;251;48.704;9.210;2022-07-17T10:14:32;1.30;;;1.00;;
529;SDS011;251;48.704;9.210;2022-07-17T10:17:05;1.30;;;0.90;;
529;SDS011;251;48.704;9.210;2022-07-17T10:19:33;2.70;;;1.30;;
529;SDS011;251;48.704;9.210;2022-07-17T10:22:00;1.50;;;0.90;;
529;SDS011;251;48.704;9.210;2022-07-17T10:24:31;1.53;;;1.03;;
529;SDS011;251;48.704;9.210;2022-07-17T10:26:59;1.70;;;1.10;;
529;SDS011;251;48.704;9.210;2022-07-17T10:29:27;1.63;;;0.93;;
529;SDS011;251;48.704;9.210;2022-07-17T10:31:58;1.73;;;1.10;;
529;SDS011;251;48.704;9.210;2022-07-17T10:34:36;1.60;;;1.20;;
529;SDS011;251;48.704;9.210;2022-07-17T10:37:13;1.20;;;0.90;;
529;SDS011;251;48.704;9.210;2022-07-17T10:39:58;3.20;;;1.20;;
529;SDS011;251;48.704;9.210;2022-07-17T10:42:42;1.30;;;1.10;;
529;SDS011;251;48.704;9.210;2022-07-17T10:45:14;2.40;;;1.27;;
529;SDS011;251;48.704;9.210;2022-07-17T10:47:43;1.20;;;0.90;;
529;SDS011;251;48.704;9.210;2022-07-17T10:50:11;1.87;;;1.30;;
529;SDS011;251;48.704;9.210;2022-07-17T10:52:39;1.20;;;0.90;;
529;SDS011;251;48.704;9.210;2022-07-17T10:55:16;1.40;;;1.10;;
529;SDS011;251;48.704;9.210;2022-07-17T10:57:46;1.80;;;1.10;;
529;SDS011;251;48.704;9.210;2022-07-17T11:00:14;2.33;;;1.33;;
529;SDS011;251;48.704;9.210;2022-07-17T11:02:41;1.63;;;1.20;;
529;SDS011;251;48.704;9.210;2022-07-17T11:05:08;1.50;;;1.00;;
529;SDS011;251;48.704;9.210;2022-07-17T11:07:47;2.30;;;1.20;;
529;SDS011;251;48.704;9.210;2022-07-17T11:10:14;1.27;;;1.00;;
529;SDS011;251;48.704;9.210;2022-07-17T11:12:42;1.40;;;1.10;;
529;SDS011;251;48.704;9.210;2022-07-17T11:15:10;2.03;;;0.90;;
529;SDS011;251;48.704;9.210;2022-07-17T11:17:38;1.50;;;1.10;;
529;SDS011;251;48.704;9.210;2022-07-17T11:20:10;1.40;;;1.00;;
529;SDS011;251;48.704;9.210;2022-07-17T11:22:37;1.40;;;0.90;;
529;SDS011;251;48.704;9.210;2022-07-17T11:25:04;1.40;;;1.00;;
529;SDS011;251;48.704;9.210;2022-07-17T11:27:32;1.37;;;1.17;;
529;SDS011;251;48.704;9.210;2022-07-17T11:29:59;1.50;;;1.17;;
529;SDS011;251;48.704;9.210;2022-07-17T11:32:33;1.20;;;0.70;;
529;SDS011;251;48.704;9.210;2022-07-17T11:35:00;1.50;;;1.00;;
529;SDS011;251;48.704;9.210;2022-07-17T11:37:28;1.50;;;1.10;;
529;SDS011;251;48.704;9.210;2022-07-17T11:39:55;1.50;;;1.17;;
529;SDS011;251;48.704;9.210;2022-07-17T11:42:23;2.77;;;1.20;;
529;SDS011;251;48.704;9.210;2022-07-17T11:44:53;1.20;;;0.73;;
529;SDS011;251;48.704;9.210;2022-07-17T11:47:22;1.23;;;0.80;;
529;SDS011;251;48.704;9.210;2022-07-17T11:50:03;1.40;;;0.90;;
529;SDS011;251;48.704;9.210;2022-07-17T11:52:39;1.10;;;0.70;;
529;SDS011;251;48.704;9.210;2022-07-17T11:55:06;1.10;;;0.77;;
529;SDS011;251;48.704;9.210;2022-07-17T11:57:40;1.57;;;0.93;;
529;SDS011;251;48.704;9.210;2022-07-17T12:00:09;1.40;;;1.10;;
529;SDS011;251;48.704;9.210;2022-07-17T12:02:37;1.30;;;0.73;;
529;SDS011;251;48.704;9.210;2022-07-17T12:05:05;2.20;;;0.90;;
529;SDS011;251;48.704;9.210;2022-07-17T12:07:38;1.30;;;0.87;;
529;SDS011;251;48.704;9.210;2022-07-17T12:10:10;1.50;;;1.10;;
529;SDS011;251;48.704;9.210;2022-07-17T12:12:38;2.83;;;1.10;;
529;SDS011;251;48.704;9.210;2022-07-17T12:15:06;1.37;;;1.20;;
529;SDS011;251;48.704;9.210;2022-07-17T12:17:37;1.10;;;0.80;;
529;SDS011;251;48.704;9.210;2022-07-17T12:20:07;2.17;;;1.10;;
529;SDS011;251;48.704;9.210;2022-07-17T12:22:41;2.07;;;1.30;;
529;SDS011;251;48.704;9.210;2022-07-17T12:25:09;1.50;;;1.10;;
529;SDS011;251;48.704;9.210;2022-07-17T12:27:37;1.53;;;1.20;;
529;SDS011;251;48.704;9.210;2022-07-17T12:30:04;1.90;;;1.20;;
529;SDS011;251;48.704;9.210;2022-07-17T12:32:32;1.43;;;0.83;;
529;SDS011;251;48.704;9.210;2022-07-17T12:35:08;1.30;;;0.97;;
529;SDS011;251;48.704;9.210;2022-07-17T12:37:35;1.67;;;1.40;;
529;SDS011;251;48.704;9.210;2022-07-17T12:40:02;2.27;;;1.20;;
529;SDS011;251;48.704;9.210;2022-07-17T12:42:29;2.80;;;1.30;;
529;SDS011;251;48.704;9.210;2022-07-17T12:44:56;1.30;;;1.00;;
529;SDS011;251;48.704;9.210;2022-07-17T12:47:23;2.07;;;1.10;;
529;SDS011;251;48.704;9.210;2022-07-17T12:49:49;1.63;;;0.90;;
529;SDS011;251;48.704;9.210;2022-07-17T12:52:17;1.50;;;1.07;;
529;SDS011;251;48.704;9.210;2022-07-17T12:54:44;1.30;;;1.10;;
529;SDS011;251;48.704;9.210;2022-07-17T12:57:11;1.27;;;0.90;;
529;SDS011;251;48.704;9.210;2022-07-17T12:59:38;1.80;;;1.13;;
529;SDS011;251;48.704;9.210;2022-07-17T13:02:04;1.80;;;1.30;;
529;SDS011;251;48.704;9.210;2022-07-17T13:04:31;1.30;;;0.90;;
529;SDS011;251;48.704;9.210;2022-07-17T13:06:58;1.27;;;0.90;;
529;SDS011;251;48.704;9.210;2022-07-17T13:09:26;1.33;;;1.00;;
529;SDS011;251;48.704;9.210;2022-07-17T13:11:53;1.40;;;1.20;;
529;SDS011;251;48.704;9.210;2022-07-17T13:14:21;1.53;;;0.80;;
529;SDS011;251;48.704;9.210;2022-07-17T13:16:48;2.20;;;1.40;;
529;SDS011;251;48.704;9.210;2022-07-17T13:19:14;1.93;;;1.50;;
529;SDS011;251;48.704;9.210;2022-07-17T13:21:41;1.70;;;1.40;;
529;SDS011;251;48.704;9.210;2022-07-17T13:24:08;2.10;;;1.47;;
529;SDS011;251;48.704;9.210;2022-07-17T13:26:36;1.20;;;0.83;;
529;SDS011;251;48.704;9.210;2022-07-17T13:29:03;1.53;;;1.00;;
529;SDS011;251;48.704;9.210;2022-07-17T13:31:29;1.30;;;1.13;;
529;SDS011;251;48.704;9.210;2022-07-17T13:33:57;1.23;;;1.03;;
529;SDS011;251;48.704;9.210;2022-07-17T13:36:23;2.37;;;1.30;;
529;SDS011;251;48.704;9.210;2022-07-17T13:38:50;1.30;;;1.10;;
529;SDS011;251;48.704;9.210;2022-07-17T13:41:17;1.60;;;1.20;;
529;SDS011;251;48.704;9.210;2022-07-17T13:43:45;1.30;;;1.20;;
529;SDS011;251;48.704;9.210;2022-07-17T13:46:12;1.60;;;1.20;;
529;SDS011;251;48.704;9.210;2022-07-17T13:48:38;1.40;;;1.10;;
529;SDS011;251;48.704;9.210;2022-07-17T13:51:05;1.90;;;1.40;;
529;SDS011;251;48.704;9.210;2022-07-17T13:53:32;1.47;;;1.10;;
529;SDS011;251;48.704;9.210;2022-07-17T13:56:00;2.17;;;1.63;;
529;SDS011;251;48.704;9.210;2022-07-17T13:58:26;1.50;;;1.07;;
529;SDS011;251;48.704;9.210;2022-07-17T14:00:55;1.40;;;0.93;;
529;SDS011;251;48.704;9.210;2022-07-17T14:03:21;2.07;;;1.13;;
529;SDS011;251;48.704;9.210;2022-07-17T14:05:49;2.17;;;1.57;;
529;SDS011;251;48.704;9.210;2022-07-17T14:08:15;1.10;;;0.70;;
529;SDS011;251;48.704;9.210;2022-07-17T14:10:42;1.50;;;1.00;;
529;SDS011;251;48.704;9.210;2022-07-17T14:13:09;1.47;;;0.90;;
529;SDS011;251;48.704;9.210;2022-07-17T14:15:36;1.53;;;0.97;;
529;SDS011;251;48.704;9.210;2022-07-17T14:18:04;1.47;;;1.03;;
529;SDS011;251;48.704;9.210;2022-07-17T14:20:30;1.57;;;1.00;;
529;SDS011;251;48.704;9.210;2022-07-17T14:22:57;1.40;;;0.90;;
529;SDS011;251;48.704;9.210;2022-07-17T14:25:27;2.70;;;1.23;;
529;SDS011;251;48.704;9.210;2022-07-17T14:27:53;1.30;;;1.10;;
529;SDS011;251;48.704;9.210;2022-07-17T14:30:20;1.60;;;1.20;;
529;SDS011;251;48.704;9.210;2022-07-17T14:32:47;1.47;;;1.17;;
529;SDS011;251;48.704;9.210;2022-07-17T14:35:15;1.57;;;1.00;;
529;SDS011;251;48.704;9.210;2022-07-17T14:37:43;1.40;;;0.90;;
529;SDS011;251;48.704;9.210;2022-07-17T14:40:10;1.60;;;1.20;;
529;SDS011;251;48.704;9.210;2022-07-17T14:42:37;1.40;;;1.00;;
529;SDS011;251;48.704;9.210;2022-07-17T14:45:05;1.30;;;1.00;;
529;SDS011;251;48.704;9.210;2022-07-17T14:47:32;1.60;;;1.03;;
529;SDS011;251;48.704;9.210;2022-07-17T14:49:59;1.30;;;0.90;;
529;SDS011;251;48.704;9.210;2022-07-17T14:52:27;1.63;;;1.10;;
529;SDS011;251;48.704;9.210;2022-07-17T14:54:54;1.77;;;1.33;;
529;SDS011;251;48.704;9.210;2022-07-17T14:57:21;1.70;;;1.10;;
529;SDS011;251;48.704;9.210;2022-07-17T14:59:48;1.33;;;1.00;;
529;SDS011;251;48.704;9.210;2022-07-17T15:02:14;1.13;;;0.87;;
529;SDS011;251;48.704;9.210;2022-07-17T15:04:41;1.20;;;0.80;;
529;SDS011;251;48.704;9.210;2022-07-17T15:07:08;1.13;;;0.77;;
529;SDS011;251;48.704;9.210;2022-07-17T15:09:36;1.27;;;1.03;;
529;SDS011;251;48.704;9.210;2022-07-17T15:12:03;1.50;;;0.93;;
529;SDS011;251;48.704;9.210;2022-07-17T15:14:30;1.70;;;1.03;;
529;SDS011;251;48.704;9.210;2022-07-17T15:16:57;1.30;;;0.90;;
529;SDS011;251;48.704;9.210;2022-07-17T15:19:23;3.13;;;0.93;;
529;SDS011;251;48.704;9.210;2022-07-17T15:21:50;1.10;;;0.80;;
529;SDS011;251;48.704;9.210;2022-07-17T15:24:17;1.40;;;1.00;;
529;SDS011;251;48.704;9.210;2022-07-17T15:26:45;1.20;;;0.80;;
529;SDS011;251;48.704;9.210;2022-07-17T15:29:12;1.30;;;0.97;;
529;SDS011;251;48.704;9.210;2022-07-17T15:31:38;1.70;;;1.00;;
529;SDS011;251;48.704;9.210;2022-07-17T15:34:05;1.10;;;0.80;;
529;SDS011;251;48.704;9.210;2022-07-17T15:36:32;1.70;;;1.13;;
529;SDS011;251;48.704;9.210;2022-07-17T15:38:59;1.53;;;1.27;;
529;SDS011;251;48.704;9.210;2022-07-17T15:41:27;1.27;;;0.80;;
529;SDS011;251;48.704;9.210;2022-07-17T15:43:55;1.23;;;0.90;;
529;SDS011;251;48.704;9.210;2022-07-17T15:46:22;1.17;;;0.80;;
529;SDS011;251;48.704;9.210;2022-07-17T15:48:49;1.27;;;0.67;;